• Join FlightAware (Why Join?)
  • Login
  • US Flag 
11:56PM EDT


 

Airport Tracker/Info


-or-


 

Live Flight TrackerFlight Track Log ✈ TAM3199 ✈ 23-May-2013 ✈ SBVT / VIX - SBGL / GIG

Flight Track Log - Related Links

Times and Time Zones

All times are in EDT time to prevent confusion due to time zone crossing. See the TAM3199 flight status page for this flight to view local times or setup timezone preferences in your user account.

Time Position Orientation Groundspeed Altitude Reporting Facility
EDT Latitude Longitude Course Direction KTS MPH feet Rate Location/Type
09:28AM -20.2780 -40.2990 212° Southwest 153 176 1,100  Level FlightAware
09:28AM -20.2990 -40.3050 195° South 188 216 1,700 1,380 Climbing FlightAware
09:29AM -20.3250 -40.3110 192° South 230 265 2,400 3,480 Climbing FlightAware
09:29AM -20.3740 -40.2980 166° South 234 269 5,500 3,660 Climbing FlightAware
09:30AM -20.3900 -40.2750 127° Southeast 246 283 6,700 2,580 Climbing FlightAware
09:30AM -20.4160 -40.2490 137° Southeast 259 298 8,100 2,940 Climbing FlightAware
09:31AM -20.4450 -40.2260 143° Southeast 273 314 9,400 2,820 Climbing FlightAware
09:31AM -20.4870 -40.1970 147° Southeast 285 328 11,200 2,400 Climbing FlightAware
09:32AM -20.5270 -40.1690 147° Southeast 292 336 12,800 2,400 Climbing FlightAware
09:32AM -20.5410 -40.1630 158° South 284 327 13,400 3,000 Climbing FlightAware
09:33AM -20.5770 -40.1730 195° South 255 293 14,800 2,460 Climbing FlightAware
09:34AM -20.6210 -40.2240 227° Southwest 261 300 16,900 2,040 Climbing FlightAware
09:34AM -20.6540 -40.2640 229° Southwest 286 329 17,900 2,160 Climbing FlightAware
09:35AM -20.7050 -40.3260 229° Southwest 297 342 20,000 2,580 Climbing FlightAware
09:36AM -20.7430 -40.3730 229° Southwest 289 333 21,800 2,400 Climbing FlightAware
09:36AM -20.7740 -40.4100 228° Southwest 289 333 23,000 1,440 Climbing FlightAware
09:37AM -20.8320 -40.4820 229° Southwest 328 377 23,900 720 Climbing FlightAware
09:38AM -20.8780 -40.5380 229° Southwest 355 409 24,200 900 Climbing FlightAware
09:39AM -20.9250 -40.5860 224° Southwest 368 423 25,100 1,320 Climbing FlightAware
09:39AM -20.9930 -40.6410 217° Southwest 377 434 26,100 1,200 Climbing FlightAware
09:40AM -21.0450 -40.6830 217° Southwest 385 443 26,800 1,260 Climbing FlightAware
09:41AM -21.1140 -40.7400 218° Southwest 389 448 27,900 1,860 Climbing FlightAware
09:42AM -21.1730 -40.7890 218° Southwest 372 428 29,600 1,560 Climbing FlightAware
09:42AM -21.2310 -40.8360 217° Southwest 371 427 30,000 240 Climbing FlightAware
09:43AM -21.2910 -40.8860 218° Southwest 387 445 30,000  Level FlightAware
09:44AM -21.3530 -40.9370 217° Southwest 400 460 30,000  Level FlightAware
09:44AM -21.4190 -40.9910 217° Southwest 400 460 30,000  Level FlightAware
09:45AM -21.4780 -41.0400 218° Southwest 400 460 30,000  Level FlightAware
09:46AM -21.5290 -41.0820 217° Southwest 399 459 30,000  Level FlightAware
09:47AM -21.6150 -41.1530 218° Southwest 402 463 30,000  Level FlightAware
09:47AM -21.6770 -41.2040 217° Southwest 404 465 30,000  Level FlightAware
09:48AM -21.7350 -41.2580 221° Southwest 398 458 30,000  Level FlightAware
09:49AM -21.7900 -41.3310 231° Southwest 395 455 30,000  Level FlightAware
09:49AM -21.8640 -41.4320 232° Southwest 390 449 30,000  Level FlightAware
09:50AM -21.9090 -41.4950 232° Southwest 389 448 30,000  Level FlightAware
09:51AM -21.9600 -41.5650 232° Southwest 389 448 30,000  Level FlightAware
09:51AM -22.0040 -41.6260 232° Southwest 388 447 30,000  Level FlightAware
09:52AM -22.0480 -41.6870 232° Southwest 389 448 30,000  Level FlightAware
09:53AM -22.0970 -41.7550 232° Southwest 388 447 30,000  Level FlightAware
09:54AM -22.1400 -41.8150 232° Southwest 386 444 30,000  Level FlightAware
09:54AM -22.1850 -41.8770 232° Southwest 386 444 30,000  Level FlightAware
09:55AM -22.2350 -41.9470 232° Southwest 387 445 30,000  Level FlightAware
09:56AM -22.2790 -42.0080 232° Southwest 386 444 30,000  Level FlightAware
09:56AM -22.3270 -42.0750 232° Southwest 387 445 30,000  Level FlightAware
09:57AM -22.3700 -42.1350 232° Southwest 387 445 30,000  Level FlightAware
09:58AM -22.4160 -42.1960 231° Southwest 389 448 30,000  Level FlightAware
09:58AM -22.4690 -42.2630 229° Southwest 362 417 30,000 -2,400 Level FlightAware
09:59AM -22.5130 -42.3180 229° Southwest 368 423 26,600 -6,540 Descending FlightAware
10:00AM -22.5640 -42.3820 229° Southwest 407 468 20,800 -6,180 Descending FlightAware
10:01AM -22.6130 -42.4430 229° Southwest 385 443 17,900 -3,540 Descending FlightAware
10:01AM -22.6580 -42.4990 229° Southwest 344 396 16,100 -2,580 Descending FlightAware
10:02AM -22.6990 -42.5530 231° Southwest 314 361 14,300 -2,760 Descending FlightAware
10:02AM -22.7040 -42.5690 251° West 308 354 13,600 -3,300 Descending FlightAware
10:03AM -22.7070 -42.6380 267° West 298 343 11,300 -2,760 Descending FlightAware
10:04AM -22.7090 -42.6980 268° West 284 327 9,700 -2,340 Descending FlightAware
10:04AM -22.7110 -42.7400 267° West 275 316 8,600 -2,280 Descending FlightAware
10:04AM -22.7120 -42.7590 267° West 276 318 8,000 -2,580 Descending FlightAware
10:05AM -22.7140 -42.7950 267° West 276 318 6,900 -2,400 Descending FlightAware
10:05AM -22.7140 -42.8150 270° West 276 318 6,400 -1,380 Descending FlightAware
10:05AM -22.7160 -42.8540 267° West 252 290 5,900 -1,140 Descending FlightAware
10:06AM -22.7200 -42.8850 262° West 238 274 5,400 -1,680 Descending FlightAware
10:06AM -22.7230 -42.9010 259° West 228 262 4,800 -2,820 Descending FlightAware
10:06AM -22.7260 -42.9190 260° West 224 258 4,000 -3,120 Descending FlightAware
10:07AM -22.7310 -42.9530 261° West 225 259 2,500 -2,520 Descending FlightAware
10:07AM -22.7350 -42.9780 260° West 214 246 1,700 -1,020 Descending FlightAware
10:08AM -22.7400 -43.0070 259° West 190 219 1,600 -120 Descending FlightAware
10:08AM -22.7470 -43.0440 258° West 188 216 1,600  Level FlightAware
10:09AM -22.7550 -43.0720 253° West 187 215 1,600  Level FlightAware
10:09AM -22.7600 -43.0920 255° West 187 215 1,600  Level FlightAware
10:10AM -22.7640 -43.1080 255° West 179 206 1,600  Level FlightAware
10:10AM -22.7690 -43.1290 256° West 149 171 1,600 -360 Level FlightAware
10:11AM -22.7740 -43.1470 253° West 139 160 1,300 -600 Descending FlightAware
10:11AM -22.7800 -43.1700 254° West 138 159 900 -660 Descending FlightAware
10:12AM -22.7850 -43.1910 256° West 139 160 500 -540 Descending FlightAware
10:12AM -22.7920 -43.2150 252° West 139 160 300 -300 Descending FlightAware
10:15AM -22.8089 -43.2436 237° Southwest  Level Estimated
10:16AM -22.8089 -43.2436 137° Southeast  Level Estimated
10:17AM -22.8089 -43.2436 137° Southeast  Level Estimated
10:18AM -22.8089 -43.2436 137° Southeast  Level Estimated
10:19AM -22.8089 -43.2436 137° Southeast  Level Estimated
10:20AM -22.8089 -43.2436 137° Southeast  Level Estimated
10:21AM -22.8089 -43.2436 137° Southeast  Level Estimated
10:22AM -22.8089 -43.2436 137° Southeast  Level Estimated
10:23AM -22.8089 -43.2436 137° Southeast  Level Estimated
10:24AM -22.8089 -43.2436 137° Southeast  Level Estimated
10:25AM -22.8089 -43.2436 137° Southeast  Level Estimated
10:26AM -22.8089 -43.2436 137° Southeast  Level Estimated
10:27AM -22.8089 -43.2436 137° Southeast  Level Estimated
10:28AM -22.8089 -43.2436 137° Southeast  Level Estimated
10:29AM -22.8089 -43.2436 137° Southeast  Level Estimated
10:30AM -22.8089 -43.2436 137° Southeast  Level Estimated
10:31AM -22.8089 -43.2436 137° Southeast  Level Estimated
10:32AM -22.8089 -43.2436 137° Southeast  Level Estimated
10:33AM -22.8089 -43.2436 137° Southeast  Level Estimated
10:34AM -22.8089 -43.2436 137° Southeast  Level Estimated
10:35AM -22.8089 -43.2436 137° Southeast  Level Estimated
10:36AM -22.8089 -43.2436 137° Southeast  Level Estimated
10:37AM -22.8089 -43.2436 137° Southeast  Level Estimated
10:38AM -22.8089 -43.2436 137° Southeast  Level Estimated
10:39AM -22.8089 -43.2436 137° Southeast  Level Estimated
10:40AM -22.8089 -43.2436 137° Southeast  Level Estimated